Atlasgracht — PCVX — position and weather

sailwx.info

Track history (hours):
 
Tides and Currents Weather Stations Pressure Air Temp Water Temp Dewpoint Dewpoint Depression Visibility Wind Speed Wind Dir Waves Ship Positions

Atlasgracht

Last reported at 2017-Aug-18 04:28 UTC. Time now 2017-Aug-19 05:33 UTC.
Position N 49°33' W 004°01'.

Length 130 m; beam 19 m; draft 9 m.

Type: Ship (hazmat cat C). MMSI: 244060802.

Date/timePositionNaut miles runAvg speedWind from/ knotsBaromVisibWave heightAir tempDewpointWater temp
2017-Aug-18 04:28N 49°33' W 004°01'510.8
2017-Aug-18 04:00N 49°36' W 003°54'510.6
2017-Aug-18 03:30N 49°39' W 003°47'510.6
2017-Aug-18 03:00N 49°42' W 003°40'510.8
2017-Aug-18 02:30N 49°45' W 003°34'511.0
2017-Aug-18 02:00N 49°47' W 003°26'611.1
2017-Aug-18 01:30N 49°50' W 003°19'611.3
2017-Aug-18 01:00N 49°53' W 003°12'611.6
2017-Aug-18 00:30N 49°56' W 003°04'612.2
2017-Aug-18 00:00N 49°60' W 002°56'612.7
2017-Aug-17 23:30N 50°01' W 002°46'2714.0
2017-Aug-17 21:34N 50°09' W 002°05'114.5
2017-Aug-17 21:29N 50°09' W 002°04'714.4
2017-Aug-17 21:00N 50°11' W 001°53'714.1
2017-Aug-17 20:30N 50°13' W 001°43'713.7
2017-Aug-17 20:00N 50°14' W 001°32'713.2
2017-Aug-17 19:30N 50°16' W 001°22'612.8
2017-Aug-17 19:00N 50°18' W 001°13'612.1
2017-Aug-17 18:29N 50°19' W 001°03'1110.9
2017-Aug-17 17:29N 50°22' W 000°47'11 9.6
2017-Aug-17 16:23N 50°25' W 000°31'3 9.2
2017-Aug-17 16:00N 50°26' W 000°25'5 9.6
2017-Aug-17 15:30N 50°27' W 000°18'510.1
2017-Aug-17 15:00N 50°29' W 000°11'510.6
2017-Aug-17 14:30N 50°30' W 000°02'510.8
2017-Aug-17 14:00N 50°31' E 000°06'611.2
2017-Aug-17 13:31N 50°33' E 000°14'611.7
2017-Aug-17 12:58N 50°35' E 000°24'612.1
2017-Aug-17 12:31N 50°36' E 000°32'612.2
2017-Aug-17 12:00N 50°39' E 000°41'612.5
2017-Aug-17 11:30N 50°43' E 000°49'612.4
2017-Aug-17 11:01N 50°46' E 000°57'712.1
2017-Aug-17 10:25N 50°51' E 001°06'511.7
2017-Aug-17 10:00N 50°54' E 001°11'611.2
2017-Aug-17 09:31N 50°58' E 001°17'510.6
2017-Aug-17 09:01N 51°02' E 001°23'510.1
2017-Aug-17 08:31N 51°05' E 001°29'5 9.2
2017-Aug-17 08:01N 51°08' E 001°35'5 9.2
2017-Aug-17 07:30N 51°11' E 001°41'5 9.7
2017-Aug-17 07:00N 51°14' E 001°46'510.3
2017-Aug-17 06:31N 51°19' E 001°51'611.1
2017-Aug-17 06:00N 51°23' E 001°55'611.8
2017-Aug-17 05:31N 51°28' E 002°01'612.7
2017-Aug-17 05:01N 51°33' E 002°08'713.2
2017-Aug-17 04:30N 51°38' E 002°15'713.9
2017-Aug-17 04:00N 51°43' E 002°22'713.8
2017-Aug-17 03:30N 51°48' E 002°30'1313.4
2017-Aug-17 02:32N 51°58' E 002°44'013.5
2017-Aug-17 02:30N 51°58' E 002°44'713.3
2017-Aug-17 02:00N 52°03' E 002°52'612.7
2017-Aug-17 01:30N 52°04' E 003°02'613.2
2017-Aug-17 01:00N 52°04' E 003°12'713.0
2017-Aug-17 00:30N 52°04' E 003°23'612.9
2017-Aug-17 00:00N 52°04' E 003°33'612.9
2017-Aug-16 23:30N 52°03' E 003°44'612.6
2017-Aug-16 23:00N 52°03' E 003°54'5 9.1
2017-Aug-16 22:30N 52°01' E 004°00'612.9
2017-Aug-16 22:00N 51°57' E 004°10'611.3
2017-Aug-16 21:30N 51°54' E 004°17'5 9.5
2017-Aug-16 21:00N 51°54' E 004°25'1 1.6
2017-Aug-16 20:30N 51°54' E 004°26'0 0.0
2017-Aug-16 20:00N 51°54' E 004°26'0 0.0
2017-Aug-16 19:30N 51°54' E 004°26'0 0.0
2017-Aug-16 19:00N 51°54' E 004°26'0 0.0
2017-Aug-16 18:30N 51°54' E 004°26'0 0.0
2017-Aug-16 18:00N 51°54' E 004°26'0 0.0
2017-Aug-16 17:30N 51°54' E 004°26'0 0.0
2017-Aug-16 17:00N 51°54' E 004°26'0 0.0
2017-Aug-16 16:30N 51°54' E 004°26'0 0.0
2017-Aug-16 16:00N 51°54' E 004°26'0 0.0
2017-Aug-16 15:30N 51°54' E 004°26'0 0.0
2017-Aug-16 15:00N 51°54' E 004°26'0 0.0
2017-Aug-16 14:30N 51°54' E 004°26'0 0.0
2017-Aug-16 14:00N 51°54' E 004°26'0 0.0
2017-Aug-16 13:30N 51°54' E 004°26'0 0.0
2017-Aug-16 13:00N 51°54' E 004°26'0 0.0
2017-Aug-16 12:30N 51°54' E 004°26'0 0.0
2017-Aug-16 12:00N 51°54' E 004°26'0 0.0
2017-Aug-16 11:30N 51°54' E 004°26'0 0.0
2017-Aug-16 11:00N 51°54' E 004°26'0 0.0
2017-Aug-16 10:30N 51°54' E 004°26'0 0.0
2017-Aug-16 10:00N 51°54' E 004°26'0 0.0
2017-Aug-16 09:30N 51°54' E 004°26'0 0.0
2017-Aug-16 09:00N 51°54' E 004°26'0 0.0
2017-Aug-16 08:30N 51°54' E 004°26'0 0.0
2017-Aug-16 08:00N 51°54' E 004°26'0 0.0
2017-Aug-16 07:30N 51°54' E 004°26'0 0.0
2017-Aug-16 07:00N 51°54' E 004°26'0 0.0
2017-Aug-16 06:30N 51°54' E 004°26'0 0.0
2017-Aug-16 06:00N 51°54' E 004°26'0 0.0
2017-Aug-16 05:30N 51°54' E 004°26'0 0.0
2017-Aug-16 05:00N 51°54' E 004°26'0 0.0
2017-Aug-16 04:30N 51°54' E 004°26'0 0.0
2017-Aug-16 04:00N 51°54' E 004°26'0 0.0
2017-Aug-16 03:30N 51°54' E 004°26'0 0.0
2017-Aug-16 03:00N 51°54' E 004°26'0 0.0
2017-Aug-16 02:30N 51°54' E 004°26'0 0.0
2017-Aug-16 02:00N 51°54' E 004°26'0 0.0
2017-Aug-16 01:30N 51°54' E 004°26'0 0.0
2017-Aug-16 01:00N 51°54' E 004°26'0 0.0
2017-Aug-16 00:30N 51°54' E 004°26'0 0.0
2017-Aug-16 00:00N 51°54' E 004°26'0 0.0
2017-Aug-15 23:30N 51°54' E 004°26'0 0.0
2017-Aug-15 23:00N 51°54' E 004°26'0 0.0
2017-Aug-15 22:30N 51°54' E 004°26'0 0.0
2017-Aug-15 22:00N 51°54' E 004°26'0 0.0
2017-Aug-15 21:30N 51°54' E 004°26'0 0.0
2017-Aug-15 21:00N 51°54' E 004°26'0 0.0
2017-Aug-15 20:30N 51°54' E 004°26'0 0.0
2017-Aug-15 20:00N 51°54' E 004°26'0 0.0
2017-Aug-15 19:30N 51°54' E 004°26'0 0.0
2017-Aug-15 19:00N 51°54' E 004°26'0 0.0
2017-Aug-15 18:30N 51°54' E 004°26'0 0.0
2017-Aug-15 18:00N 51°54' E 004°26'0 0.0
2017-Aug-15 17:30N 51°54' E 004°26'0 0.0
2017-Aug-15 17:00N 51°54' E 004°26'0 0.0
2017-Aug-15 16:30N 51°54' E 004°26'0 0.0
2017-Aug-15 16:00N 51°54' E 004°26'1 1.4
2017-Aug-15 15:30N 51°54' E 004°25'510.2
2017-Aug-15 15:00N 51°54' E 004°17'510.4
2017-Aug-15 14:30N 51°57' E 004°10'510.4
2017-Aug-15 14:00N 51°59' E 004°02'611.7
2017-Aug-15 13:30N 52°00' E 003°53'4 7.1
2017-Aug-15 13:00N 51°58' E 003°48'1 2.5
2017-Aug-15 12:30N 51°57' E 003°48'0 0.0
2017-Aug-15 12:00N 51°57' E 003°48'0 0.2
2017-Aug-15 11:30N 51°57' E 003°48'510.3
2017-Aug-15 11:00N 52°02' E 003°47'612.7
2017-Aug-15 10:30N 52°08' E 003°46'612.4
2017-Aug-15 10:00N 52°15' E 003°46'611.7
2017-Aug-15 09:30N 52°20' E 003°48'611.4
2017-Aug-15 09:00N 52°26' E 003°50'511.1
2017-Aug-15 08:30N 52°31' E 003°52'510.8
2017-Aug-15 08:00N 52°37' E 003°53'510.6
2017-Aug-15 07:30N 52°42' E 003°55'510.7
2017-Aug-15 07:00N 52°47' E 003°57'611.0
2017-Aug-15 06:30N 52°53' E 003°59'611.7
2017-Aug-15 06:00N 52°58' E 004°01'612.7
2017-Aug-15 05:30N 53°02' E 004°09'713.1
2017-Aug-15 05:00N 53°07' E 004°17'713.1
2017-Aug-15 04:30N 53°11' E 004°25'713.2
2017-Aug-15 04:00N 53°18' E 004°29'713.1
2017-Aug-15 03:30N 53°24' E 004°33'612.7
2017-Aug-15 03:00N 53°29' E 004°38'612.9
2017-Aug-15 02:30N 53°32' E 004°48'612.6
2017-Aug-15 02:00N 53°34' E 004°58'612.2
2017-Aug-15 01:30N 53°36' E 005°08'611.4
2017-Aug-15 00:59N 53°38' E 005°18'611.0
2017-Aug-15 00:29N 53°39' E 005°26'611.3
2017-Aug-15 00:00N 53°41' E 005°35'3810.6
2017-Aug-14 20:26N 53°35' E 006°38'614.1
2017-Aug-14 20:00N 53°31' E 006°46'5 9.3
2017-Aug-14 19:30N 53°27' E 006°50'0 0.3
2017-Aug-14 18:13N 53°27' E 006°50'0 0.0
2017-Aug-14 18:00N 53°27' E 006°50'0 0.0
2017-Aug-14 06:42N 53°27' E 006°50'0 0.0
2017-Aug-14 06:24N 53°27' E 006°50'0 0.0
2017-Aug-14 05:00N 53°27' E 006°50'0 0.0
2017-Aug-14 03:12N 53°27' E 006°50'0 0.0
2017-Aug-14 03:00N 53°27' E 006°50'0 0.0
2017-Aug-14 02:30N 53°27' E 006°50'0 0.0
2017-Aug-13 19:18N 53°27' E 006°50'0 0.0
2017-Aug-13 18:54N 53°27' E 006°50'0 0.0
2017-Aug-13 17:12N 53°27' E 006°50'0 0.0
2017-Aug-13 12:00N 53°27' E 006°50'0 0.0
2017-Aug-13 08:48N 53°27' E 006°50'0 0.0
2017-Aug-13 08:30N 53°27' E 006°50'0 0.0
2017-Aug-12 19:18N 53°27' E 006°50'0 0.0
2017-Aug-12 19:00N 53°27' E 006°50'0 0.0
2017-Aug-12 18:30N 53°27' E 006°50'0 0.0
2017-Aug-12 17:42N 53°27' E 006°50'0 0.0
2017-Aug-12 17:30N 53°27' E 006°50'0 0.0
2017-Aug-12 17:00N 53°27' E 006°50'0 0.0
2017-Aug-12 16:30N 53°27' E 006°50'0 0.0
2017-Aug-12 16:00N 53°27' E 006°50'0 0.0
2017-Aug-12 15:30N 53°27' E 006°50'0 0.0
2017-Aug-12 15:00N 53°27' E 006°50'0 0.0
2017-Aug-12 14:30N 53°27' E 006°50'0 0.0
2017-Aug-12 14:00N 53°27' E 006°50'0 0.0
2017-Aug-12 13:30N 53°27' E 006°50'0 0.0
2017-Aug-12 13:00N 53°27' E 006°50'0 0.0
2017-Aug-12 12:30N 53°27' E 006°50'0 0.0
2017-Aug-12 12:00N 53°27' E 006°50'0 0.0
2017-Aug-12 11:12N 53°27' E 006°50'0 0.0
2017-Aug-12 10:54N 53°27' E 006°50'0 0.0
2017-Aug-12 10:18N 53°27' E 006°50'0 0.0
2017-Aug-12 07:42N 53°27' E 006°50'0 0.0
2017-Aug-12 07:30N 53°27' E 006°50'0 0.0
2017-Aug-12 07:00N 53°27' E 006°50'0 0.0
2017-Aug-12 06:30N 53°27' E 006°50'0 0.0
2017-Aug-12 05:42N 53°27' E 006°50'0 0.0
2017-Aug-12 05:12N 53°27' E 006°50'0 0.0
2017-Aug-12 02:54N 53°27' E 006°50'0 0.0
2017-Aug-12 01:24N 53°27' E 006°50'0 0.0
2017-Aug-11 19:24N 53°27' E 006°50'0 0.0
2017-Aug-11 18:54N 53°27' E 006°50'0 0.0
2017-Aug-11 18:12N 53°27' E 006°50'0 0.0
2017-Aug-11 18:00N 53°27' E 006°50'0 0.0
2017-Aug-11 17:30N 53°27' E 006°50'0 0.0
2017-Aug-11 17:00N 53°27' E 006°50'0 0.0
2017-Aug-11 16:30N 53°27' E 006°50'0 0.0
2017-Aug-11 16:00N 53°27' E 006°50'0 0.0
2017-Aug-11 15:30N 53°27' E 006°50'0 0.0
2017-Aug-11 14:54N 53°27' E 006°50'0 0.0
2017-Aug-11 14:24N 53°27' E 006°50'0 0.0
2017-Aug-11 13:24N 53°27' E 006°50'0 0.0
2017-Aug-11 12:54N 53°27' E 006°50'0 0.0
2017-Aug-11 10:12N 53°27' E 006°50'0 0.0
2017-Aug-11 10:00N 53°27' E 006°50'0 0.0
2017-Aug-11 09:30N 53°27' E 006°50'0 0.0
2017-Aug-11 09:00N 53°27' E 006°50'0 0.0
2017-Aug-10 20:04N 53°27' E 006°50'0 0.0
2017-Aug-10 19:55N 53°27' E 006°50'0 0.0
2017-Aug-10 19:19N 53°27' E 006°50'0 0.0
2017-Aug-10 18:55N 53°27' E 006°50'0 0.0
2017-Aug-10 18:28N 53°27' E 006°50'0 0.0
2017-Aug-10 17:55N 53°27' E 006°50'0 0.0
2017-Aug-10 17:10N 53°27' E 006°50'0 0.0
2017-Aug-10 16:58N 53°27' E 006°50'0 0.0
2017-Aug-10 16:25N 53°27' E 006°50'0 0.0
2017-Aug-10 15:49N 53°27' E 006°50'0 0.0
2017-Aug-10 15:28N 53°27' E 006°50'0 0.0
2017-Aug-10 14:49N 53°27' E 006°50'0 0.0
2017-Aug-10 14:28N 53°27' E 006°50'0 0.0
2017-Aug-10 13:37N 53°27' E 006°50'0 0.0
2017-Aug-10 13:28N 53°27' E 006°50'0 0.0
2017-Aug-10 11:52N 53°27' E 006°50'0 0.0
2017-Aug-10 10:55N 53°27' E 006°50'0 0.0
2017-Aug-10 10:10N 53°27' E 006°50'0 0.0
2017-Aug-10 09:46N 53°27' E 006°50'0 0.0
2017-Aug-10 09:28N 53°27' E 006°50'0 0.0
2017-Aug-10 08:46N 53°27' E 006°50'0 0.0
2017-Aug-10 08:28N 53°27' E 006°50'0 0.0
2017-Aug-09 18:43N 53°27' E 006°50'0 0.0
2017-Aug-09 18:28N 53°27' E 006°50'0 0.0
2017-Aug-09 17:46N 53°27' E 006°50'0 0.0
2017-Aug-09 15:34N 53°27' E 006°50'0 0.0
2017-Aug-09 15:25N 53°27' E 006°50'0 0.0
2017-Aug-09 14:37N 53°27' E 006°50'0 0.0
2017-Aug-09 11:37N 53°27' E 006°50'0 0.0
2017-Aug-09 11:25N 53°27' E 006°50'0 0.0
2017-Aug-09 10:07N 53°27' E 006°50'0 0.0
2017-Aug-09 09:46N 53°27' E 006°50'0 0.0
2017-Aug-08 22:10N 53°27' E 006°50'0 0.0
2017-Aug-08 21:46N 53°27' E 006°50'0 0.0
2017-Aug-08 18:01N 53°27' E 006°50'0 0.0
2017-Aug-08 17:55N 53°27' E 006°50'0 0.0
2017-Aug-08 17:25N 53°27' E 006°50'0 0.0
2017-Aug-08 16:58N 53°27' E 006°50'0 0.0
2017-Aug-08 16:19N 53°27' E 006°50'0 0.0
2017-Aug-08 08:28N 53°27' E 006°50'0 0.0
2017-Aug-08 07:55N 53°27' E 006°50'0 0.0
2017-Aug-08 07:16N 53°27' E 006°50'0 0.0
2017-Aug-08 06:31N 53°27' E 006°50'0 0.0
2017-Aug-08 06:28N 53°27' E 006°50'0 0.0
2017-Aug-08 05:58N 53°27' E 006°50'0 0.0
2017-Aug-08 05:28N 53°27' E 006°50'0 0.0
2017-Aug-08 04:58N 53°27' E 006°50'  
Track history (hours):
 
Tides and Currents Weather Stations Pressure Air Temp Water Temp Dewpoint Dewpoint Depression Visibility Wind Speed Wind Dir Waves Ship Positions

Atlasgracht

Last reported at 2017-Aug-18 04:28 UTC. Time now 2017-Aug-19 05:33 UTC.
Position N 49°33' W 004°01'.

Length 130 m; beam 19 m; draft 9 m.

Type: Ship (hazmat cat C). MMSI: 244060802.

Date/timePositionNaut miles runAvg speedWind from/ knotsBaromVisibWave heightAir tempDewpointWater temp
2017-Aug-18 04:28N 49°33' W 004°01'510.8
2017-Aug-18 04:00N 49°36' W 003°54'510.6
2017-Aug-18 03:30N 49°39' W 003°47'510.6
2017-Aug-18 03:00N 49°42' W 003°40'510.8
2017-Aug-18 02:30N 49°45' W 003°34'511.0
2017-Aug-18 02:00N 49°47' W 003°26'611.1
2017-Aug-18 01:30N 49°50' W 003°19'611.3
2017-Aug-18 01:00N 49°53' W 003°12'611.6
2017-Aug-18 00:30N 49°56' W 003°04'612.2
2017-Aug-18 00:00N 49°60' W 002°56'612.7
2017-Aug-17 23:30N 50°01' W 002°46'2714.0
2017-Aug-17 21:34N 50°09' W 002°05'114.5
2017-Aug-17 21:29N 50°09' W 002°04'714.4
2017-Aug-17 21:00N 50°11' W 001°53'714.1
2017-Aug-17 20:30N 50°13' W 001°43'713.7
2017-Aug-17 20:00N 50°14' W 001°32'713.2
2017-Aug-17 19:30N 50°16' W 001°22'612.8
2017-Aug-17 19:00N 50°18' W 001°13'612.1
2017-Aug-17 18:29N 50°19' W 001°03'1110.9
2017-Aug-17 17:29N 50°22' W 000°47'11 9.6
2017-Aug-17 16:23N 50°25' W 000°31'3 9.2
2017-Aug-17 16:00N 50°26' W 000°25'5 9.6
2017-Aug-17 15:30N 50°27' W 000°18'510.1
2017-Aug-17 15:00N 50°29' W 000°11'510.6
2017-Aug-17 14:30N 50°30' W 000°02'510.8
2017-Aug-17 14:00N 50°31' E 000°06'611.2
2017-Aug-17 13:31N 50°33' E 000°14'611.7
2017-Aug-17 12:58N 50°35' E 000°24'612.1
2017-Aug-17 12:31N 50°36' E 000°32'612.2
2017-Aug-17 12:00N 50°39' E 000°41'612.5
2017-Aug-17 11:30N 50°43' E 000°49'612.4
2017-Aug-17 11:01N 50°46' E 000°57'712.1
2017-Aug-17 10:25N 50°51' E 001°06'511.7
2017-Aug-17 10:00N 50°54' E 001°11'611.2
2017-Aug-17 09:31N 50°58' E 001°17'510.6
2017-Aug-17 09:01N 51°02' E 001°23'510.1
2017-Aug-17 08:31N 51°05' E 001°29'5 9.2
2017-Aug-17 08:01N 51°08' E 001°35'5 9.2
2017-Aug-17 07:30N 51°11' E 001°41'5 9.7
2017-Aug-17 07:00N 51°14' E 001°46'510.3
2017-Aug-17 06:31N 51°19' E 001°51'611.1
2017-Aug-17 06:00N 51°23' E 001°55'611.8
2017-Aug-17 05:31N 51°28' E 002°01'612.7
2017-Aug-17 05:01N 51°33' E 002°08'713.2
2017-Aug-17 04:30N 51°38' E 002°15'713.9
2017-Aug-17 04:00N 51°43' E 002°22'713.8
2017-Aug-17 03:30N 51°48' E 002°30'1313.4
2017-Aug-17 02:32N 51°58' E 002°44'013.5
2017-Aug-17 02:30N 51°58' E 002°44'713.3
2017-Aug-17 02:00N 52°03' E 002°52'612.7
2017-Aug-17 01:30N 52°04' E 003°02'613.2
2017-Aug-17 01:00N 52°04' E 003°12'713.0
2017-Aug-17 00:30N 52°04' E 003°23'612.9
2017-Aug-17 00:00N 52°04' E 003°33'612.9
2017-Aug-16 23:30N 52°03' E 003°44'612.6
2017-Aug-16 23:00N 52°03' E 003°54'5 9.1
2017-Aug-16 22:30N 52°01' E 004°00'612.9
2017-Aug-16 22:00N 51°57' E 004°10'611.3
2017-Aug-16 21:30N 51°54' E 004°17'5 9.5
2017-Aug-16 21:00N 51°54' E 004°25'1 1.6
2017-Aug-16 20:30N 51°54' E 004°26'0 0.0
2017-Aug-16 20:00N 51°54' E 004°26'0 0.0
2017-Aug-16 19:30N 51°54' E 004°26'0 0.0
2017-Aug-16 19:00N 51°54' E 004°26'0 0.0
2017-Aug-16 18:30N 51°54' E 004°26'0 0.0
2017-Aug-16 18:00N 51°54' E 004°26'0 0.0
2017-Aug-16 17:30N 51°54' E 004°26'0 0.0
2017-Aug-16 17:00N 51°54' E 004°26'0 0.0
2017-Aug-16 16:30N 51°54' E 004°26'0 0.0
2017-Aug-16 16:00N 51°54' E 004°26'0 0.0
2017-Aug-16 15:30N 51°54' E 004°26'0 0.0
2017-Aug-16 15:00N 51°54' E 004°26'0 0.0
2017-Aug-16 14:30N 51°54' E 004°26'0 0.0
2017-Aug-16 14:00N 51°54' E 004°26'0 0.0
2017-Aug-16 13:30N 51°54' E 004°26'0 0.0
2017-Aug-16 13:00N 51°54' E 004°26'0 0.0
2017-Aug-16 12:30N 51°54' E 004°26'0 0.0
2017-Aug-16 12:00N 51°54' E 004°26'0 0.0
2017-Aug-16 11:30N 51°54' E 004°26'0 0.0
2017-Aug-16 11:00N 51°54' E 004°26'0 0.0
2017-Aug-16 10:30N 51°54' E 004°26'0 0.0
2017-Aug-16 10:00N 51°54' E 004°26'0 0.0
2017-Aug-16 09:30N 51°54' E 004°26'0 0.0
2017-Aug-16 09:00N 51°54' E 004°26'0 0.0
2017-Aug-16 08:30N 51°54' E 004°26'0 0.0
2017-Aug-16 08:00N 51°54' E 004°26'0 0.0
2017-Aug-16 07:30N 51°54' E 004°26'0 0.0
2017-Aug-16 07:00N 51°54' E 004°26'0 0.0
2017-Aug-16 06:30N 51°54' E 004°26'0 0.0
2017-Aug-16 06:00N 51°54' E 004°26'0 0.0
2017-Aug-16 05:30N 51°54' E 004°26'0 0.0
2017-Aug-16 05:00N 51°54' E 004°26'0 0.0
2017-Aug-16 04:30N 51°54' E 004°26'0 0.0
2017-Aug-16 04:00N 51°54' E 004°26'0 0.0
2017-Aug-16 03:30N 51°54' E 004°26'0 0.0
2017-Aug-16 03:00N 51°54' E 004°26'0 0.0
2017-Aug-16 02:30N 51°54' E 004°26'0 0.0
2017-Aug-16 02:00N 51°54' E 004°26'0 0.0
2017-Aug-16 01:30N 51°54' E 004°26'0 0.0
2017-Aug-16 01:00N 51°54' E 004°26'0 0.0
2017-Aug-16 00:30N 51°54' E 004°26'0 0.0
2017-Aug-16 00:00N 51°54' E 004°26'0 0.0
2017-Aug-15 23:30N 51°54' E 004°26'0 0.0
2017-Aug-15 23:00N 51°54' E 004°26'0 0.0
2017-Aug-15 22:30N 51°54' E 004°26'0 0.0
2017-Aug-15 22:00N 51°54' E 004°26'0 0.0
2017-Aug-15 21:30N 51°54' E 004°26'0 0.0
2017-Aug-15 21:00N 51°54' E 004°26'0 0.0
2017-Aug-15 20:30N 51°54' E 004°26'0 0.0
2017-Aug-15 20:00N 51°54' E 004°26'0 0.0
2017-Aug-15 19:30N 51°54' E 004°26'0 0.0
2017-Aug-15 19:00N 51°54' E 004°26'0 0.0
2017-Aug-15 18:30N 51°54' E 004°26'0 0.0
2017-Aug-15 18:00N 51°54' E 004°26'0 0.0
2017-Aug-15 17:30N 51°54' E 004°26'0 0.0
2017-Aug-15 17:00N 51°54' E 004°26'0 0.0
2017-Aug-15 16:30N 51°54' E 004°26'0 0.0
2017-Aug-15 16:00N 51°54' E 004°26'1 1.4
2017-Aug-15 15:30N 51°54' E 004°25'510.2
2017-Aug-15 15:00N 51°54' E 004°17'510.4
2017-Aug-15 14:30N 51°57' E 004°10'510.4
2017-Aug-15 14:00N 51°59' E 004°02'611.7
2017-Aug-15 13:30N 52°00' E 003°53'4 7.1
2017-Aug-15 13:00N 51°58' E 003°48'1 2.5
2017-Aug-15 12:30N 51°57' E 003°48'0 0.0
2017-Aug-15 12:00N 51°57' E 003°48'0 0.2
2017-Aug-15 11:30N 51°57' E 003°48'510.3
2017-Aug-15 11:00N 52°02' E 003°47'612.7
2017-Aug-15 10:30N 52°08' E 003°46'612.4
2017-Aug-15 10:00N 52°15' E 003°46'611.7
2017-Aug-15 09:30N 52°20' E 003°48'611.4
2017-Aug-15 09:00N 52°26' E 003°50'511.1
2017-Aug-15 08:30N 52°31' E 003°52'510.8
2017-Aug-15 08:00N 52°37' E 003°53'510.6
2017-Aug-15 07:30N 52°42' E 003°55'510.7
2017-Aug-15 07:00N 52°47' E 003°57'611.0
2017-Aug-15 06:30N 52°53' E 003°59'611.7
2017-Aug-15 06:00N 52°58' E 004°01'612.7
2017-Aug-15 05:30N 53°02' E 004°09'713.1
2017-Aug-15 05:00N 53°07' E 004°17'713.1
2017-Aug-15 04:30N 53°11' E 004°25'713.2
2017-Aug-15 04:00N 53°18' E 004°29'713.1
2017-Aug-15 03:30N 53°24' E 004°33'612.7
2017-Aug-15 03:00N 53°29' E 004°38'612.9
2017-Aug-15 02:30N 53°32' E 004°48'612.6
2017-Aug-15 02:00N 53°34' E 004°58'612.2
2017-Aug-15 01:30N 53°36' E 005°08'611.4
2017-Aug-15 00:59N 53°38' E 005°18'611.0
2017-Aug-15 00:29N 53°39' E 005°26'611.3
2017-Aug-15 00:00N 53°41' E 005°35'3810.6
2017-Aug-14 20:26N 53°35' E 006°38'614.1
2017-Aug-14 20:00N 53°31' E 006°46'5 9.3
2017-Aug-14 19:30N 53°27' E 006°50'0 0.3
2017-Aug-14 18:13N 53°27' E 006°50'0 0.0
2017-Aug-14 18:00N 53°27' E 006°50'0 0.0
2017-Aug-14 06:42N 53°27' E 006°50'0 0.0
2017-Aug-14 06:24N 53°27' E 006°50'0 0.0
2017-Aug-14 05:00N 53°27' E 006°50'0 0.0
2017-Aug-14 03:12N 53°27' E 006°50'0 0.0
2017-Aug-14 03:00N 53°27' E 006°50'0 0.0
2017-Aug-14 02:30N 53°27' E 006°50'0 0.0
2017-Aug-13 19:18N 53°27' E 006°50'0 0.0
2017-Aug-13 18:54N 53°27' E 006°50'0 0.0
2017-Aug-13 17:12N 53°27' E 006°50'0 0.0
2017-Aug-13 12:00N 53°27' E 006°50'0 0.0
2017-Aug-13 08:48N 53°27' E 006°50'0 0.0
2017-Aug-13 08:30N 53°27' E 006°50'0 0.0
2017-Aug-12 19:18N 53°27' E 006°50'0 0.0
2017-Aug-12 19:00N 53°27' E 006°50'0 0.0
2017-Aug-12 18:30N 53°27' E 006°50'0 0.0
2017-Aug-12 17:42N 53°27' E 006°50'0 0.0
2017-Aug-12 17:30N 53°27' E 006°50'0 0.0
2017-Aug-12 17:00N 53°27' E 006°50'0 0.0
2017-Aug-12 16:30N 53°27' E 006°50'0 0.0
2017-Aug-12 16:00N 53°27' E 006°50'0 0.0
2017-Aug-12 15:30N 53°27' E 006°50'0 0.0
2017-Aug-12 15:00N 53°27' E 006°50'0 0.0
2017-Aug-12 14:30N 53°27' E 006°50'0 0.0
2017-Aug-12 14:00N 53°27' E 006°50'0 0.0
2017-Aug-12 13:30N 53°27' E 006°50'0 0.0
2017-Aug-12 13:00N 53°27' E 006°50'0 0.0
2017-Aug-12 12:30N 53°27' E 006°50'0 0.0
2017-Aug-12 12:00N 53°27' E 006°50'0 0.0
2017-Aug-12 11:12N 53°27' E 006°50'0 0.0
2017-Aug-12 10:54N 53°27' E 006°50'0 0.0
2017-Aug-12 10:18N 53°27' E 006°50'0 0.0
2017-Aug-12 07:42N 53°27' E 006°50'0 0.0
2017-Aug-12 07:30N 53°27' E 006°50'0 0.0
2017-Aug-12 07:00N 53°27' E 006°50'0 0.0
2017-Aug-12 06:30N 53°27' E 006°50'0 0.0
2017-Aug-12 05:42N 53°27' E 006°50'0 0.0
2017-Aug-12 05:12N 53°27' E 006°50'0 0.0
2017-Aug-12 02:54N 53°27' E 006°50'0 0.0
2017-Aug-12 01:24N 53°27' E 006°50'0 0.0
2017-Aug-11 19:24N 53°27' E 006°50'0 0.0
2017-Aug-11 18:54N 53°27' E 006°50'0 0.0
2017-Aug-11 18:12N 53°27' E 006°50'0 0.0
2017-Aug-11 18:00N 53°27' E 006°50'0 0.0
2017-Aug-11 17:30N 53°27' E 006°50'0 0.0
2017-Aug-11 17:00N 53°27' E 006°50'0 0.0
2017-Aug-11 16:30N 53°27' E 006°50'0 0.0
2017-Aug-11 16:00N 53°27' E 006°50'0 0.0
2017-Aug-11 15:30N 53°27' E 006°50'0 0.0
2017-Aug-11 14:54N 53°27' E 006°50'0 0.0
2017-Aug-11 14:24N 53°27' E 006°50'0 0.0
2017-Aug-11 13:24N 53°27' E 006°50'0 0.0
2017-Aug-11 12:54N 53°27' E 006°50'0 0.0
2017-Aug-11 10:12N 53°27' E 006°50'0 0.0
2017-Aug-11 10:00N 53°27' E 006°50'0 0.0
2017-Aug-11 09:30N 53°27' E 006°50'0 0.0
2017-Aug-11 09:00N 53°27' E 006°50'0 0.0
2017-Aug-10 20:04N 53°27' E 006°50'0 0.0
2017-Aug-10 19:55N 53°27' E 006°50'0 0.0
2017-Aug-10 19:19N 53°27' E 006°50'0 0.0
2017-Aug-10 18:55N 53°27' E 006°50'0 0.0
2017-Aug-10 18:28N 53°27' E 006°50'0 0.0
2017-Aug-10 17:55N 53°27' E 006°50'0 0.0
2017-Aug-10 17:10N 53°27' E 006°50'0 0.0
2017-Aug-10 16:58N 53°27' E 006°50'0 0.0
2017-Aug-10 16:25N 53°27' E 006°50'0 0.0
2017-Aug-10 15:49N 53°27' E 006°50'0 0.0
2017-Aug-10 15:28N 53°27' E 006°50'0 0.0
2017-Aug-10 14:49N 53°27' E 006°50'0 0.0
2017-Aug-10 14:28N 53°27' E 006°50'0 0.0
2017-Aug-10 13:37N 53°27' E 006°50'0 0.0
2017-Aug-10 13:28N 53°27' E 006°50'0 0.0
2017-Aug-10 11:52N 53°27' E 006°50'0 0.0
2017-Aug-10 10:55N 53°27' E 006°50'0 0.0
2017-Aug-10 10:10N 53°27' E 006°50'0 0.0
2017-Aug-10 09:46N 53°27' E 006°50'0 0.0
2017-Aug-10 09:28N 53°27' E 006°50'0 0.0
2017-Aug-10 08:46N 53°27' E 006°50'0 0.0
2017-Aug-10 08:28N 53°27' E 006°50'0 0.0
2017-Aug-09 18:43N 53°27' E 006°50'0 0.0
2017-Aug-09 18:28N 53°27' E 006°50'0 0.0
2017-Aug-09 17:46N 53°27' E 006°50'0 0.0
2017-Aug-09 15:34N 53°27' E 006°50'0 0.0
2017-Aug-09 15:25N 53°27' E 006°50'0 0.0
2017-Aug-09 14:37N 53°27' E 006°50'0 0.0
2017-Aug-09 11:37N 53°27' E 006°50'0 0.0
2017-Aug-09 11:25N 53°27' E 006°50'0 0.0
2017-Aug-09 10:07N 53°27' E 006°50'0 0.0
2017-Aug-09 09:46N 53°27' E 006°50'0 0.0
2017-Aug-08 22:10N 53°27' E 006°50'0 0.0
2017-Aug-08 21:46N 53°27' E 006°50'0 0.0
2017-Aug-08 18:01N 53°27' E 006°50'0 0.0
2017-Aug-08 17:55N 53°27' E 006°50'0 0.0
2017-Aug-08 17:25N 53°27' E 006°50'0 0.0
2017-Aug-08 16:58N 53°27' E 006°50'0 0.0
2017-Aug-08 16:19N 53°27' E 006°50'0 0.0
2017-Aug-08 08:28N 53°27' E 006°50'0 0.0
2017-Aug-08 07:55N 53°27' E 006°50'0 0.0
2017-Aug-08 07:16N 53°27' E 006°50'0 0.0
2017-Aug-08 06:31N 53°27' E 006°50'0 0.0
2017-Aug-08 06:28N 53°27' E 006°50'0 0.0
2017-Aug-08 05:58N 53°27' E 006°50'0 0.0
2017-Aug-08 05:28N 53°27' E 006°50'0 0.0
2017-Aug-08 04:58N 53°27' E 006°50'  

Dump ship's entire track history